sensor_id;sensor_type;location;lat;lon;timestamp;P1;durP1;ratioP1;P2;durP2;ratioP2
53036;SDS011;38924;52.134;4.666;2023-09-07T00:01:27;15.02;;;13.73;;
53036;SDS011;38924;52.134;4.666;2023-09-07T00:03:55;19.27;;;17.58;;
53036;SDS011;38924;52.134;4.666;2023-09-07T00:06:21;13.80;;;12.57;;
53036;SDS011;38924;52.134;4.666;2023-09-07T00:08:49;16.42;;;15.00;;
53036;SDS011;38924;52.134;4.666;2023-09-07T00:11:15;15.27;;;13.93;;
53036;SDS011;38924;52.134;4.666;2023-09-07T00:13:41;15.30;;;14.00;;
53036;SDS011;38924;52.134;4.666;2023-09-07T00:16:09;14.15;;;12.82;;
53036;SDS011;38924;52.134;4.666;2023-09-07T00:18:36;14.75;;;13.55;;
53036;SDS011;38924;52.134;4.666;2023-09-07T00:21:04;14.23;;;12.82;;
53036;SDS011;38924;52.134;4.666;2023-09-07T00:23:30;17.45;;;16.05;;
53036;SDS011;38924;52.134;4.666;2023-09-07T00:25:56;16.35;;;15.07;;
53036;SDS011;38924;52.134;4.666;2023-09-07T00:28:22;16.38;;;14.98;;
53036;SDS011;38924;52.134;4.666;2023-09-07T00:30:47;18.77;;;16.85;;
53036;SDS011;38924;52.134;4.666;2023-09-07T00:33:13;17.20;;;15.75;;
53036;SDS011;38924;52.134;4.666;2023-09-07T00:35:39;21.85;;;17.55;;
53036;SDS011;38924;52.134;4.666;2023-09-07T00:38:04;17.02;;;15.40;;
53036;SDS011;38924;52.134;4.666;2023-09-07T00:40:30;16.10;;;14.70;;
53036;SDS011;38924;52.134;4.666;2023-09-07T00:42:56;18.35;;;14.15;;
53036;SDS011;38924;52.134;4.666;2023-09-07T00:45:22;16.67;;;15.20;;
53036;SDS011;38924;52.134;4.666;2023-09-07T00:47:48;16.58;;;15.27;;
53036;SDS011;38924;52.134;4.666;2023-09-07T00:50:14;16.70;;;15.10;;
53036;SDS011;38924;52.134;4.666;2023-09-07T00:52:42;15.90;;;14.60;;
53036;SDS011;38924;52.134;4.666;2023-09-07T00:55:08;15.18;;;13.80;;
53036;SDS011;38924;52.134;4.666;2023-09-07T00:57:35;15.65;;;14.25;;
53036;SDS011;38924;52.134;4.666;2023-09-07T01:00:03;16.25;;;15.05;;
53036;SDS011;38924;52.134;4.666;2023-09-07T01:02:31;17.30;;;15.68;;
53036;SDS011;38924;52.134;4.666;2023-09-07T01:04:57;17.35;;;15.63;;
53036;SDS011;38924;52.134;4.666;2023-09-07T01:07:35;15.80;;;14.43;;
53036;SDS011;38924;52.134;4.666;2023-09-07T01:10:02;17.02;;;15.32;;
53036;SDS011;38924;52.134;4.666;2023-09-07T01:12:28;17.02;;;15.52;;
53036;SDS011;38924;52.134;4.666;2023-09-07T01:14:54;16.33;;;14.88;;
53036;SDS011;38924;52.134;4.666;2023-09-07T01:17:21;17.90;;;16.48;;
53036;SDS011;38924;52.134;4.666;2023-09-07T01:19:48;20.25;;;18.35;;
53036;SDS011;38924;52.134;4.666;2023-09-07T01:22:16;17.45;;;15.85;;
53036;SDS011;38924;52.134;4.666;2023-09-07T01:24:42;16.75;;;15.35;;
53036;SDS011;38924;52.134;4.666;2023-09-07T01:27:08;18.80;;;16.92;;
53036;SDS011;38924;52.134;4.666;2023-09-07T01:29:35;17.17;;;15.77;;
53036;SDS011;38924;52.134;4.666;2023-09-07T01:32:03;17.42;;;15.95;;
53036;SDS011;38924;52.134;4.666;2023-09-07T01:34:29;16.02;;;14.73;;
53036;SDS011;38924;52.134;4.666;2023-09-07T01:36:56;17.88;;;16.15;;
53036;SDS011;38924;52.134;4.666;2023-09-07T01:39:22;17.60;;;16.10;;
53036;SDS011;38924;52.134;4.666;2023-09-07T01:41:48;15.27;;;13.77;;
53036;SDS011;38924;52.134;4.666;2023-09-07T01:44:14;18.40;;;15.63;;
53036;SDS011;38924;52.134;4.666;2023-09-07T01:46:40;15.13;;;13.90;;
53036;SDS011;38924;52.134;4.666;2023-09-07T01:49:06;16.35;;;14.98;;
53036;SDS011;38924;52.134;4.666;2023-09-07T01:51:32;15.52;;;14.10;;
53036;SDS011;38924;52.134;4.666;2023-09-07T01:53:58;16.25;;;14.93;;
53036;SDS011;38924;52.134;4.666;2023-09-07T01:56:23;18.35;;;14.90;;
53036;SDS011;38924;52.134;4.666;2023-09-07T01:58:50;16.90;;;14.90;;
53036;SDS011;38924;52.134;4.666;2023-09-07T02:03:47;15.15;;;13.68;;
53036;SDS011;38924;52.134;4.666;2023-09-07T02:06:15;17.63;;;16.15;;
53036;SDS011;38924;52.134;4.666;2023-09-07T02:08:41;16.90;;;15.05;;
53036;SDS011;38924;52.134;4.666;2023-09-07T02:11:06;15.55;;;14.07;;
53036;SDS011;38924;52.134;4.666;2023-09-07T02:13:32;15.98;;;13.45;;
53036;SDS011;38924;52.134;4.666;2023-09-07T02:15:58;17.23;;;15.80;;
53036;SDS011;38924;52.134;4.666;2023-09-07T02:18:23;16.40;;;14.90;;
53036;SDS011;38924;52.134;4.666;2023-09-07T02:20:49;18.00;;;16.52;;
53036;SDS011;38924;52.134;4.666;2023-09-07T02:23:16;17.13;;;14.95;;
53036;SDS011;38924;52.134;4.666;2023-09-07T02:25:41;17.33;;;14.88;;
53036;SDS011;38924;52.134;4.666;2023-09-07T02:28:10;14.32;;;13.05;;
53036;SDS011;38924;52.134;4.666;2023-09-07T02:30:36;16.25;;;14.30;;
53036;SDS011;38924;52.134;4.666;2023-09-07T02:33:01;16.75;;;14.82;;
53036;SDS011;38924;52.134;4.666;2023-09-07T02:35:31;16.95;;;15.38;;
53036;SDS011;38924;52.134;4.666;2023-09-07T02:37:58;16.15;;;14.68;;
53036;SDS011;38924;52.134;4.666;2023-09-07T02:40:33;15.68;;;14.15;;
53036;SDS011;38924;52.134;4.666;2023-09-07T02:43:04;14.50;;;13.20;;
53036;SDS011;38924;52.134;4.666;2023-09-07T02:45:30;17.92;;;16.10;;
53036;SDS011;38924;52.134;4.666;2023-09-07T02:47:56;15.48;;;13.25;;
53036;SDS011;38924;52.134;4.666;2023-09-07T02:50:22;19.67;;;15.05;;
53036;SDS011;38924;52.134;4.666;2023-09-07T02:52:48;19.00;;;15.07;;
53036;SDS011;38924;52.134;4.666;2023-09-07T02:55:13;15.95;;;14.27;;
53036;SDS011;38924;52.134;4.666;2023-09-07T02:57:40;18.50;;;16.80;;
53036;SDS011;38924;52.134;4.666;2023-09-07T03:00:06;22.02;;;15.82;;
53036;SDS011;38924;52.134;4.666;2023-09-07T03:02:35;17.33;;;14.50;;
53036;SDS011;38924;52.134;4.666;2023-09-07T03:05:04;16.75;;;15.40;;
53036;SDS011;38924;52.134;4.666;2023-09-07T03:07:32;19.38;;;17.80;;
53036;SDS011;38924;52.134;4.666;2023-09-07T03:09:58;17.52;;;15.15;;
53036;SDS011;38924;52.134;4.666;2023-09-07T03:12:24;18.83;;;16.42;;
53036;SDS011;38924;52.134;4.666;2023-09-07T03:14:51;21.23;;;16.58;;
53036;SDS011;38924;52.134;4.666;2023-09-07T03:17:18;19.70;;;17.77;;
53036;SDS011;38924;52.134;4.666;2023-09-07T03:19:44;16.20;;;14.63;;
53036;SDS011;38924;52.134;4.666;2023-09-07T03:22:09;17.42;;;15.77;;
53036;SDS011;38924;52.134;4.666;2023-09-07T03:24:35;17.52;;;15.82;;
53036;SDS011;38924;52.134;4.666;2023-09-07T03:27:01;17.50;;;15.80;;
53036;SDS011;38924;52.134;4.666;2023-09-07T03:29:29;19.33;;;17.55;;
53036;SDS011;38924;52.134;4.666;2023-09-07T03:31:55;18.48;;;16.50;;
53036;SDS011;38924;52.134;4.666;2023-09-07T03:34:21;17.58;;;15.43;;
53036;SDS011;38924;52.134;4.666;2023-09-07T03:36:47;19.90;;;18.10;;
53036;SDS011;38924;52.134;4.666;2023-09-07T03:39:12;18.67;;;16.70;;
53036;SDS011;38924;52.134;4.666;2023-09-07T03:41:38;20.55;;;18.58;;
53036;SDS011;38924;52.134;4.666;2023-09-07T03:44:04;20.23;;;18.23;;
53036;SDS011;38924;52.134;4.666;2023-09-07T03:46:33;18.85;;;16.98;;
53036;SDS011;38924;52.134;4.666;2023-09-07T03:48:58;20.15;;;16.52;;
53036;SDS011;38924;52.134;4.666;2023-09-07T03:51:28;19.27;;;17.42;;
53036;SDS011;38924;52.134;4.666;2023-09-07T03:53:53;18.98;;;17.08;;
53036;SDS011;38924;52.134;4.666;2023-09-07T03:56:22;18.25;;;16.60;;
53036;SDS011;38924;52.134;4.666;2023-09-07T03:58:49;19.20;;;17.30;;
53036;SDS011;38924;52.134;4.666;2023-09-07T04:01:14;18.27;;;16.52;;
53036;SDS011;38924;52.134;4.666;2023-09-07T04:03:40;20.80;;;18.80;;
53036;SDS011;38924;52.134;4.666;2023-09-07T04:06:07;19.88;;;17.88;;
53036;SDS011;38924;52.134;4.666;2023-09-07T04:08:33;19.98;;;17.50;;
53036;SDS011;38924;52.134;4.666;2023-09-07T04:11:02;24.00;;;18.00;;
53036;SDS011;38924;52.134;4.666;2023-09-07T04:13:28;18.70;;;16.92;;
53036;SDS011;38924;52.134;4.666;2023-09-07T04:15:54;22.80;;;17.58;;
53036;SDS011;38924;52.134;4.666;2023-09-07T04:18:20;20.20;;;18.27;;
53036;SDS011;38924;52.134;4.666;2023-09-07T04:20:45;20.15;;;17.92;;
53036;SDS011;38924;52.134;4.666;2023-09-07T04:23:12;17.55;;;15.80;;
53036;SDS011;38924;52.134;4.666;2023-09-07T04:25:38;19.73;;;17.98;;
53036;SDS011;38924;52.134;4.666;2023-09-07T04:28:11;19.15;;;16.40;;
53036;SDS011;38924;52.134;4.666;2023-09-07T04:30:37;20.70;;;18.85;;
53036;SDS011;38924;52.134;4.666;2023-09-07T04:33:03;17.25;;;15.57;;
53036;SDS011;38924;52.134;4.666;2023-09-07T04:35:29;17.80;;;16.25;;
53036;SDS011;38924;52.134;4.666;2023-09-07T04:37:56;18.58;;;16.58;;
53036;SDS011;38924;52.134;4.666;2023-09-07T04:40:22;19.30;;;17.48;;
53036;SDS011;38924;52.134;4.666;2023-09-07T04:42:48;17.67;;;15.98;;
53036;SDS011;38924;52.134;4.666;2023-09-07T04:45:13;17.13;;;15.32;;
53036;SDS011;38924;52.134;4.666;2023-09-07T04:47:39;20.55;;;16.73;;
53036;SDS011;38924;52.134;4.666;2023-09-07T04:50:05;19.60;;;17.20;;
53036;SDS011;38924;52.134;4.666;2023-09-07T04:52:32;16.95;;;15.25;;
53036;SDS011;38924;52.134;4.666;2023-09-07T04:55:01;18.35;;;16.48;;
53036;SDS011;38924;52.134;4.666;2023-09-07T04:57:27;16.55;;;14.85;;
53036;SDS011;38924;52.134;4.666;2023-09-07T04:59:52;18.60;;;16.58;;
53036;SDS011;38924;52.134;4.666;2023-09-07T05:02:18;19.13;;;17.35;;
53036;SDS011;38924;52.134;4.666;2023-09-07T05:04:44;18.67;;;16.98;;
53036;SDS011;38924;52.134;4.666;2023-09-07T05:07:10;18.45;;;16.00;;
53036;SDS011;38924;52.134;4.666;2023-09-07T05:09:36;20.38;;;16.30;;
53036;SDS011;38924;52.134;4.666;2023-09-07T05:12:02;16.30;;;14.60;;
53036;SDS011;38924;52.134;4.666;2023-09-07T05:14:28;16.85;;;15.10;;
53036;SDS011;38924;52.134;4.666;2023-09-07T05:16:55;17.00;;;14.48;;
53036;SDS011;38924;52.134;4.666;2023-09-07T05:19:22;18.15;;;15.60;;
53036;SDS011;38924;52.134;4.666;2023-09-07T05:21:48;16.80;;;14.90;;
53036;SDS011;38924;52.134;4.666;2023-09-07T05:24:14;18.73;;;16.38;;
53036;SDS011;38924;52.134;4.666;2023-09-07T05:26:43;21.95;;;16.65;;
53036;SDS011;38924;52.134;4.666;2023-09-07T05:29:11;15.45;;;13.95;;
53036;SDS011;38924;52.134;4.666;2023-09-07T05:31:38;17.05;;;15.43;;
53036;SDS011;38924;52.134;4.666;2023-09-07T05:34:03;17.48;;;15.95;;
53036;SDS011;38924;52.134;4.666;2023-09-07T05:36:29;18.45;;;16.65;;
53036;SDS011;38924;52.134;4.666;2023-09-07T05:38:56;15.77;;;14.23;;
53036;SDS011;38924;52.134;4.666;2023-09-07T05:41:22;17.38;;;15.70;;
53036;SDS011;38924;52.134;4.666;2023-09-07T05:43:48;20.95;;;18.70;;
53036;SDS011;38924;52.134;4.666;2023-09-07T05:46:14;23.45;;;19.45;;
53036;SDS011;38924;52.134;4.666;2023-09-07T05:48:40;20.20;;;18.40;;
53036;SDS011;38924;52.134;4.666;2023-09-07T05:51:06;21.60;;;19.35;;
53036;SDS011;38924;52.134;4.666;2023-09-07T05:53:32;23.52;;;21.58;;
53036;SDS011;38924;52.134;4.666;2023-09-07T05:55:57;21.73;;;19.98;;
53036;SDS011;38924;52.134;4.666;2023-09-07T05:58:23;26.52;;;24.42;;
53036;SDS011;38924;52.134;4.666;2023-09-07T06:00:49;25.23;;;23.20;;
53036;SDS011;38924;52.134;4.666;2023-09-07T06:03:16;21.48;;;19.70;;
53036;SDS011;38924;52.134;4.666;2023-09-07T06:05:42;22.83;;;20.85;;
53036;SDS011;38924;52.134;4.666;2023-09-07T06:08:09;21.50;;;19.33;;
53036;SDS011;38924;52.134;4.666;2023-09-07T06:10:36;22.13;;;19.98;;
53036;SDS011;38924;52.134;4.666;2023-09-07T06:13:03;21.67;;;19.63;;
53036;SDS011;38924;52.134;4.666;2023-09-07T06:15:29;21.25;;;19.38;;
53036;SDS011;38924;52.134;4.666;2023-09-07T06:17:55;15.15;;;13.63;;
53036;SDS011;38924;52.134;4.666;2023-09-07T06:20:21;16.90;;;15.48;;
53036;SDS011;38924;52.134;4.666;2023-09-07T06:22:46;17.75;;;16.00;;
53036;SDS011;38924;52.134;4.666;2023-09-07T06:25:16;16.70;;;15.18;;
53036;SDS011;38924;52.134;4.666;2023-09-07T06:27:42;19.90;;;18.00;;
53036;SDS011;38924;52.134;4.666;2023-09-07T06:30:09;17.55;;;15.95;;
53036;SDS011;38924;52.134;4.666;2023-09-07T06:32:36;18.00;;;16.30;;
53036;SDS011;38924;52.134;4.666;2023-09-07T06:35:02;18.85;;;17.30;;
53036;SDS011;38924;52.134;4.666;2023-09-07T06:37:29;19.48;;;17.67;;
53036;SDS011;38924;52.134;4.666;2023-09-07T06:39:55;16.17;;;14.18;;
53036;SDS011;38924;52.134;4.666;2023-09-07T06:42:21;18.17;;;16.55;;
53036;SDS011;38924;52.134;4.666;2023-09-07T06:44:52;20.00;;;18.38;;
53036;SDS011;38924;52.134;4.666;2023-09-07T06:47:18;24.63;;;19.48;;
53036;SDS011;38924;52.134;4.666;2023-09-07T06:49:43;18.63;;;16.85;;
53036;SDS011;38924;52.134;4.666;2023-09-07T06:52:09;17.95;;;16.25;;
53036;SDS011;38924;52.134;4.666;2023-09-07T06:54:37;19.10;;;17.50;;
53036;SDS011;38924;52.134;4.666;2023-09-07T06:57:06;20.20;;;18.40;;
53036;SDS011;38924;52.134;4.666;2023-09-07T06:59:32;17.67;;;16.17;;
53036;SDS011;38924;52.134;4.666;2023-09-07T07:01:58;23.25;;;17.20;;
53036;SDS011;38924;52.134;4.666;2023-09-07T07:04:25;19.92;;;17.83;;
53036;SDS011;38924;52.134;4.666;2023-09-07T07:06:51;19.80;;;18.13;;
53036;SDS011;38924;52.134;4.666;2023-09-07T07:09:16;19.88;;;17.92;;
53036;SDS011;38924;52.134;4.666;2023-09-07T07:11:42;20.35;;;17.20;;
53036;SDS011;38924;52.134;4.666;2023-09-07T07:14:09;17.50;;;15.75;;
53036;SDS011;38924;52.134;4.666;2023-09-07T07:16:36;19.63;;;17.90;;
53036;SDS011;38924;52.134;4.666;2023-09-07T07:19:01;21.88;;;16.77;;
53036;SDS011;38924;52.134;4.666;2023-09-07T07:21:27;18.65;;;16.80;;
53036;SDS011;38924;52.134;4.666;2023-09-07T07:23:53;19.48;;;17.67;;
53036;SDS011;38924;52.134;4.666;2023-09-07T07:26:19;20.45;;;18.65;;
53036;SDS011;38924;52.134;4.666;2023-09-07T07:28:45;18.00;;;16.17;;
53036;SDS011;38924;52.134;4.666;2023-09-07T07:31:11;19.30;;;17.77;;
53036;SDS011;38924;52.134;4.666;2023-09-07T07:33:40;17.40;;;15.77;;
53036;SDS011;38924;52.134;4.666;2023-09-07T07:36:06;18.15;;;16.27;;
53036;SDS011;38924;52.134;4.666;2023-09-07T07:38:32;19.63;;;17.88;;
53036;SDS011;38924;52.134;4.666;2023-09-07T07:40:58;14.63;;;13.40;;
53036;SDS011;38924;52.134;4.666;2023-09-07T07:43:24;16.33;;;14.70;;
53036;SDS011;38924;52.134;4.666;2023-09-07T07:45:51;18.33;;;14.77;;
53036;SDS011;38924;52.134;4.666;2023-09-07T07:48:17;18.45;;;15.27;;
53036;SDS011;38924;52.134;4.666;2023-09-07T07:50:44;17.52;;;15.35;;
53036;SDS011;38924;52.134;4.666;2023-09-07T07:53:12;20.70;;;15.70;;
53036;SDS011;38924;52.134;4.666;2023-09-07T07:55:40;16.55;;;14.82;;
53036;SDS011;38924;52.134;4.666;2023-09-07T07:58:08;14.93;;;13.52;;
53036;SDS011;38924;52.134;4.666;2023-09-07T08:00:35;16.80;;;15.10;;
53036;SDS011;38924;52.134;4.666;2023-09-07T08:03:01;15.98;;;14.40;;
53036;SDS011;38924;52.134;4.666;2023-09-07T08:05:31;20.70;;;15.63;;
53036;SDS011;38924;52.134;4.666;2023-09-07T08:07:57;17.27;;;15.77;;
53036;SDS011;38924;52.134;4.666;2023-09-07T08:10:23;18.70;;;15.15;;
53036;SDS011;38924;52.134;4.666;2023-09-07T08:12:55;16.10;;;14.70;;
53036;SDS011;38924;52.134;4.666;2023-09-07T08:15:21;16.90;;;15.23;;
53036;SDS011;38924;52.134;4.666;2023-09-07T08:17:49;17.45;;;15.95;;
53036;SDS011;38924;52.134;4.666;2023-09-07T08:20:15;14.55;;;13.00;;
53036;SDS011;38924;52.134;4.666;2023-09-07T08:22:42;18.92;;;13.68;;
53036;SDS011;38924;52.134;4.666;2023-09-07T08:25:10;18.65;;;14.05;;
53036;SDS011;38924;52.134;4.666;2023-09-07T08:27:37;14.93;;;12.95;;
53036;SDS011;38924;52.134;4.666;2023-09-07T08:30:03;21.52;;;14.38;;
53036;SDS011;38924;52.134;4.666;2023-09-07T08:32:31;14.07;;;12.68;;
53036;SDS011;38924;52.134;4.666;2023-09-07T08:34:57;15.25;;;13.85;;
53036;SDS011;38924;52.134;4.666;2023-09-07T08:37:29;18.58;;;14.48;;
53036;SDS011;38924;52.134;4.666;2023-09-07T08:39:55;14.93;;;13.45;;
53036;SDS011;38924;52.134;4.666;2023-09-07T08:42:23;13.20;;;12.15;;
53036;SDS011;38924;52.134;4.666;2023-09-07T08:44:49;15.75;;;12.75;;
53036;SDS011;38924;52.134;4.666;2023-09-07T08:47:16;14.57;;;13.23;;
53036;SDS011;38924;52.134;4.666;2023-09-07T08:49:43;15.38;;;13.90;;
53036;SDS011;38924;52.134;4.666;2023-09-07T08:52:09;15.38;;;13.10;;
53036;SDS011;38924;52.134;4.666;2023-09-07T08:54:35;15.45;;;13.93;;
53036;SDS011;38924;52.134;4.666;2023-09-07T08:57:02;16.75;;;15.23;;
53036;SDS011;38924;52.134;4.666;2023-09-07T08:59:29;16.65;;;14.63;;
53036;SDS011;38924;52.134;4.666;2023-09-07T09:01:56;16.30;;;14.73;;
53036;SDS011;38924;52.134;4.666;2023-09-07T09:04:22;17.63;;;13.90;;
53036;SDS011;38924;52.134;4.666;2023-09-07T09:06:48;17.63;;;15.73;;
53036;SDS011;38924;52.134;4.666;2023-09-07T09:09:21;16.25;;;14.00;;
53036;SDS011;38924;52.134;4.666;2023-09-07T09:11:47;15.65;;;14.00;;
53036;SDS011;38924;52.134;4.666;2023-09-07T09:14:16;16.35;;;14.95;;
53036;SDS011;38924;52.134;4.666;2023-09-07T09:16:42;18.25;;;16.17;;
53036;SDS011;38924;52.134;4.666;2023-09-07T09:19:13;17.48;;;15.88;;
53036;SDS011;38924;52.134;4.666;2023-09-07T09:21:38;13.82;;;12.52;;
53036;SDS011;38924;52.134;4.666;2023-09-07T09:24:08;14.57;;;13.48;;
53036;SDS011;38924;52.134;4.666;2023-09-07T09:26:36;14.43;;;13.13;;
53036;SDS011;38924;52.134;4.666;2023-09-07T09:29:02;14.27;;;13.10;;
53036;SDS011;38924;52.134;4.666;2023-09-07T09:31:27;13.18;;;11.68;;
53036;SDS011;38924;52.134;4.666;2023-09-07T09:33:54;18.02;;;16.45;;
53036;SDS011;38924;52.134;4.666;2023-09-07T09:36:21;14.60;;;13.43;;
53036;SDS011;38924;52.134;4.666;2023-09-07T09:38:50;18.77;;;12.93;;
53036;SDS011;38924;52.134;4.666;2023-09-07T09:41:17;14.98;;;13.25;;
53036;SDS011;38924;52.134;4.666;2023-09-07T09:43:43;14.20;;;12.88;;
53036;SDS011;38924;52.134;4.666;2023-09-07T09:46:10;13.65;;;12.60;;
53036;SDS011;38924;52.134;4.666;2023-09-07T09:48:37;14.45;;;13.25;;
53036;SDS011;38924;52.134;4.666;2023-09-07T09:51:09;13.27;;;12.07;;
53036;SDS011;38924;52.134;4.666;2023-09-07T09:53:36;12.48;;;11.45;;
53036;SDS011;38924;52.134;4.666;2023-09-07T09:56:02;13.60;;;12.43;;
53036;SDS011;38924;52.134;4.666;2023-09-07T09:58:31;13.60;;;12.38;;
53036;SDS011;38924;52.134;4.666;2023-09-07T10:00:59;12.75;;;11.55;;
53036;SDS011;38924;52.134;4.666;2023-09-07T10:03:29;13.10;;;11.95;;
53036;SDS011;38924;52.134;4.666;2023-09-07T10:06:07;14.77;;;12.73;;
53036;SDS011;38924;52.134;4.666;2023-09-07T10:08:32;16.02;;;14.32;;
53036;SDS011;38924;52.134;4.666;2023-09-07T10:10:59;13.07;;;11.65;;
53036;SDS011;38924;52.134;4.666;2023-09-07T10:13:29;16.65;;;12.35;;
53036;SDS011;38924;52.134;4.666;2023-09-07T10:16:01;13.65;;;12.48;;
53036;SDS011;38924;52.134;4.666;2023-09-07T10:18:36;13.70;;;12.27;;
53036;SDS011;38924;52.134;4.666;2023-09-07T10:21:02;13.77;;;12.55;;
53036;SDS011;38924;52.134;4.666;2023-09-07T10:23:35;13.32;;;12.15;;
53036;SDS011;38924;52.134;4.666;2023-09-07T10:26:02;14.43;;;12.55;;
53036;SDS011;38924;52.134;4.666;2023-09-07T10:28:35;13.20;;;12.10;;
53036;SDS011;38924;52.134;4.666;2023-09-07T10:31:02;13.23;;;11.90;;
53036;SDS011;38924;52.134;4.666;2023-09-07T10:33:31;14.57;;;13.23;;
53036;SDS011;38924;52.134;4.666;2023-09-07T10:35:58;11.98;;;11.13;;
53036;SDS011;38924;52.134;4.666;2023-09-07T10:38:24;13.60;;;12.18;;
53036;SDS011;38924;52.134;4.666;2023-09-07T10:40:54;14.73;;;13.55;;
53036;SDS011;38924;52.134;4.666;2023-09-07T10:43:26;13.60;;;12.60;;
53036;SDS011;38924;52.134;4.666;2023-09-07T10:45:53;11.77;;;10.98;;
53036;SDS011;38924;52.134;4.666;2023-09-07T10:48:19;14.23;;;12.38;;
53036;SDS011;38924;52.134;4.666;2023-09-07T10:50:45;12.38;;;11.48;;
53036;SDS011;38924;52.134;4.666;2023-09-07T10:53:11;11.90;;;10.93;;
53036;SDS011;38924;52.134;4.666;2023-09-07T10:55:41;13.55;;;12.38;;
53036;SDS011;38924;52.134;4.666;2023-09-07T10:58:08;12.98;;;11.93;;
53036;SDS011;38924;52.134;4.666;2023-09-07T11:00:34;13.70;;;12.35;;
53036;SDS011;38924;52.134;4.666;2023-09-07T11:03:06;11.90;;;10.95;;
53036;SDS011;38924;52.134;4.666;2023-09-07T11:05:32;13.63;;;12.32;;
53036;SDS011;38924;52.134;4.666;2023-09-07T11:07:58;12.93;;;11.73;;
53036;SDS011;38924;52.134;4.666;2023-09-07T11:10:26;14.70;;;13.40;;
53036;SDS011;38924;52.134;4.666;2023-09-07T11:12:52;14.23;;;13.23;;
53036;SDS011;38924;52.134;4.666;2023-09-07T11:15:18;13.35;;;12.20;;
53036;SDS011;38924;52.134;4.666;2023-09-07T11:17:45;14.45;;;11.93;;
53036;SDS011;38924;52.134;4.666;2023-09-07T11:20:11;12.57;;;11.57;;
53036;SDS011;38924;52.134;4.666;2023-09-07T11:22:37;15.50;;;14.20;;
53036;SDS011;38924;52.134;4.666;2023-09-07T11:25:06;12.70;;;11.60;;
53036;SDS011;38924;52.134;4.666;2023-09-07T11:27:32;14.30;;;13.13;;
53036;SDS011;38924;52.134;4.666;2023-09-07T11:29:57;13.13;;;12.13;;
53036;SDS011;38924;52.134;4.666;2023-09-07T11:32:23;13.70;;;12.75;;
53036;SDS011;38924;52.134;4.666;2023-09-07T11:34:52;18.90;;;17.40;;
53036;SDS011;38924;52.134;4.666;2023-09-07T11:37:24;11.90;;;11.00;;
53036;SDS011;38924;52.134;4.666;2023-09-07T11:39:51;10.68;;;9.32;;
53036;SDS011;38924;52.134;4.666;2023-09-07T11:42:19;13.57;;;10.65;;
53036;SDS011;38924;52.134;4.666;2023-09-07T11:44:45;12.05;;;11.15;;
53036;SDS011;38924;52.134;4.666;2023-09-07T11:47:13;12.80;;;10.95;;
53036;SDS011;38924;52.134;4.666;2023-09-07T11:49:40;12.07;;;11.10;;
53036;SDS011;38924;52.134;4.666;2023-09-07T11:52:05;11.70;;;10.68;;
53036;SDS011;38924;52.134;4.666;2023-09-07T11:54:31;12.00;;;10.95;;
53036;SDS011;38924;52.134;4.666;2023-09-07T11:56:57;13.30;;;11.48;;
53036;SDS011;38924;52.134;4.666;2023-09-07T11:59:23;11.88;;;11.00;;
53036;SDS011;38924;52.134;4.666;2023-09-07T12:01:48;10.82;;;9.57;;
53036;SDS011;38924;52.134;4.666;2023-09-07T12:04:14;11.38;;;10.57;;
53036;SDS011;38924;52.134;4.666;2023-09-07T12:06:40;13.50;;;12.40;;
53036;SDS011;38924;52.134;4.666;2023-09-07T12:09:06;10.82;;;9.95;;
53036;SDS011;38924;52.134;4.666;2023-09-07T12:11:32;12.07;;;11.13;;
53036;SDS011;38924;52.134;4.666;2023-09-07T12:13:58;17.02;;;14.52;;
53036;SDS011;38924;52.134;4.666;2023-09-07T12:16:27;12.73;;;11.80;;
53036;SDS011;38924;52.134;4.666;2023-09-07T12:18:53;15.32;;;12.50;;
53036;SDS011;38924;52.134;4.666;2023-09-07T12:21:19;12.60;;;11.48;;
53036;SDS011;38924;52.134;4.666;2023-09-07T12:23:45;11.98;;;11.18;;
53036;SDS011;38924;52.134;4.666;2023-09-07T12:26:12;11.60;;;10.80;;
53036;SDS011;38924;52.134;4.666;2023-09-07T12:28:37;13.50;;;11.40;;
53036;SDS011;38924;52.134;4.666;2023-09-07T12:31:06;10.38;;;9.63;;
53036;SDS011;38924;52.134;4.666;2023-09-07T12:33:31;11.40;;;10.60;;
53036;SDS011;38924;52.134;4.666;2023-09-07T12:35:58;13.02;;;10.95;;
53036;SDS011;38924;52.134;4.666;2023-09-07T12:38:25;11.65;;;10.70;;
53036;SDS011;38924;52.134;4.666;2023-09-07T12:40:56;12.23;;;11.13;;
53036;SDS011;38924;52.134;4.666;2023-09-07T12:43:24;12.15;;;11.05;;
53036;SDS011;38924;52.134;4.666;2023-09-07T12:45:50;11.65;;;9.95;;
53036;SDS011;38924;52.134;4.666;2023-09-07T12:48:16;15.05;;;12.20;;
53036;SDS011;38924;52.134;4.666;2023-09-07T12:50:42;12.60;;;11.70;;
53036;SDS011;38924;52.134;4.666;2023-09-07T12:53:08;12.55;;;11.32;;
53036;SDS011;38924;52.134;4.666;2023-09-07T12:55:35;13.93;;;12.25;;
53036;SDS011;38924;52.134;4.666;2023-09-07T12:58:01;12.80;;;11.68;;
53036;SDS011;38924;52.134;4.666;2023-09-07T13:00:30;11.65;;;10.50;;
53036;SDS011;38924;52.134;4.666;2023-09-07T13:02:56;12.15;;;9.52;;
53036;SDS011;38924;52.134;4.666;2023-09-07T13:05:22;11.77;;;10.55;;
53036;SDS011;38924;52.134;4.666;2023-09-07T13:07:47;12.07;;;10.90;;
53036;SDS011;38924;52.134;4.666;2023-09-07T13:10:13;10.82;;;9.80;;
53036;SDS011;38924;52.134;4.666;2023-09-07T13:12:40;11.18;;;10.10;;
53036;SDS011;38924;52.134;4.666;2023-09-07T13:15:06;13.00;;;12.07;;
53036;SDS011;38924;52.134;4.666;2023-09-07T13:17:32;13.13;;;11.43;;
53036;SDS011;38924;52.134;4.666;2023-09-07T13:19:58;11.38;;;10.55;;
53036;SDS011;38924;52.134;4.666;2023-09-07T13:22:23;15.70;;;14.52;;
53036;SDS011;38924;52.134;4.666;2023-09-07T13:24:49;10.10;;;9.35;;
53036;SDS011;38924;52.134;4.666;2023-09-07T13:27:15;13.02;;;11.98;;
53036;SDS011;38924;52.134;4.666;2023-09-07T13:29:41;12.27;;;11.07;;
53036;SDS011;38924;52.134;4.666;2023-09-07T13:32:10;13.55;;;12.18;;
53036;SDS011;38924;52.134;4.666;2023-09-07T13:34:39;12.10;;;10.95;;
53036;SDS011;38924;52.134;4.666;2023-09-07T13:37:05;9.43;;;8.75;;
53036;SDS011;38924;52.134;4.666;2023-09-07T13:39:30;10.68;;;9.80;;
53036;SDS011;38924;52.134;4.666;2023-09-07T13:41:56;9.98;;;9.18;;
53036;SDS011;38924;52.134;4.666;2023-09-07T13:44:22;12.55;;;10.15;;
53036;SDS011;38924;52.134;4.666;2023-09-07T13:46:47;13.88;;;10.90;;
53036;SDS011;38924;52.134;4.666;2023-09-07T13:49:14;11.02;;;10.25;;
53036;SDS011;38924;52.134;4.666;2023-09-07T13:51:41;12.50;;;11.30;;
53036;SDS011;38924;52.134;4.666;2023-09-07T13:54:07;11.63;;;10.57;;
53036;SDS011;38924;52.134;4.666;2023-09-07T13:56:33;10.38;;;9.55;;
53036;SDS011;38924;52.134;4.666;2023-09-07T13:58:59;14.05;;;12.68;;
53036;SDS011;38924;52.134;4.666;2023-09-07T14:01:25;13.57;;;12.38;;
53036;SDS011;38924;52.134;4.666;2023-09-07T14:03:51;12.90;;;11.90;;
53036;SDS011;38924;52.134;4.666;2023-09-07T14:06:16;15.48;;;13.02;;
53036;SDS011;38924;52.134;4.666;2023-09-07T14:08:43;12.55;;;11.35;;
53036;SDS011;38924;52.134;4.666;2023-09-07T14:11:10;11.25;;;10.00;;
53036;SDS011;38924;52.134;4.666;2023-09-07T14:13:36;19.70;;;12.98;;
53036;SDS011;38924;52.134;4.666;2023-09-07T14:16:02;15.02;;;13.60;;
53036;SDS011;38924;52.134;4.666;2023-09-07T14:18:28;13.23;;;11.93;;
53036;SDS011;38924;52.134;4.666;2023-09-07T14:20:56;14.10;;;13.00;;